createdAt,value
2023-05-12T00:01:16.621Z,4.10
2023-05-12T00:04:18.914Z,3.47
2023-05-12T00:07:21.208Z,3.38
2023-05-12T00:10:23.240Z,3.35
2023-05-12T00:13:25.275Z,3.63
2023-05-12T00:16:27.288Z,3.50
2023-05-12T00:19:29.357Z,3.55
2023-05-12T00:22:31.727Z,3.20
2023-05-12T00:25:33.902Z,3.30
2023-05-12T00:28:36.011Z,3.00
2023-05-12T00:31:38.027Z,3.70
2023-05-12T00:34:40.446Z,3.35
2023-05-12T00:37:42.853Z,3.40
2023-05-12T00:40:44.818Z,3.43
2023-05-12T00:43:46.892Z,2.92
2023-05-12T00:46:49.274Z,3.53
2023-05-12T00:49:51.710Z,2.83
2023-05-12T00:52:53.708Z,2.73
2023-05-12T00:55:57.621Z,3.33
2023-05-12T00:59:01.762Z,3.13
2023-05-12T01:02:04.391Z,3.33
2023-05-12T01:05:06.681Z,3.23
2023-05-12T01:08:09.417Z,3.22
2023-05-12T01:11:11.596Z,3.20
2023-05-12T01:14:14.202Z,2.90
2023-05-12T01:17:16.674Z,3.05
2023-05-12T01:20:19.039Z,3.10
2023-05-12T01:23:21.385Z,2.67
2023-05-12T01:26:23.791Z,3.57
2023-05-12T01:29:26.041Z,3.05
2023-05-12T01:32:29.509Z,3.08
2023-05-12T01:35:31.991Z,3.10
2023-05-12T01:38:36.032Z,3.20
2023-05-12T01:41:38.370Z,3.20
2023-05-12T01:44:40.860Z,3.00
2023-05-12T01:47:42.982Z,3.00
2023-05-12T01:50:45.356Z,3.83
2023-05-12T01:53:52.051Z,3.30
2023-05-12T01:56:54.490Z,3.10
2023-05-12T01:59:56.761Z,3.13
2023-05-12T02:02:58.985Z,3.17
2023-05-12T02:06:01.652Z,3.47
2023-05-12T02:09:04.406Z,3.17
2023-05-12T02:12:06.867Z,3.17
2023-05-12T02:15:09.622Z,3.13
2023-05-12T02:18:15.566Z,3.03
2023-05-12T02:21:17.917Z,3.00
2023-05-12T02:24:21.364Z,3.25
2023-05-12T02:27:23.472Z,3.13
2023-05-12T02:30:25.876Z,3.03
2023-05-12T02:33:28.103Z,3.10
2023-05-12T02:36:30.125Z,3.45
2023-05-12T02:39:32.518Z,3.10
2023-05-12T02:42:35.743Z,2.93
2023-05-12T02:45:38.212Z,2.97
2023-05-12T02:48:40.386Z,3.10
2023-05-12T02:51:42.594Z,3.73
2023-05-12T02:54:44.985Z,2.83
2023-05-12T02:57:47.186Z,3.10
2023-05-12T03:00:56.927Z,3.30
2023-05-12T03:04:05.777Z,2.83
2023-05-12T03:07:08.995Z,3.30
2023-05-12T03:10:11.173Z,2.95
2023-05-12T03:13:13.407Z,2.97
2023-05-12T03:16:19.388Z,3.33
2023-05-12T03:19:21.686Z,3.30
2023-05-12T03:22:25.216Z,3.78
2023-05-12T03:25:27.611Z,3.20
2023-05-12T03:28:29.717Z,3.72
2023-05-12T03:31:31.904Z,3.90
2023-05-12T03:34:34.712Z,3.88
2023-05-12T03:37:37.622Z,3.70
2023-05-12T03:40:40.327Z,3.83
2023-05-12T03:43:44.049Z,3.17
2023-05-12T03:46:47.596Z,3.80
2023-05-12T03:49:50.098Z,3.97
2023-05-12T03:52:56.118Z,3.47
2023-05-12T03:55:58.626Z,3.50
2023-05-12T03:59:01.963Z,3.28
2023-05-12T04:02:04.589Z,3.47
2023-05-12T04:05:08.295Z,3.63
2023-05-12T04:08:10.943Z,3.45
2023-05-12T04:11:13.980Z,3.70
2023-05-12T04:14:17.067Z,3.77
2023-05-12T04:17:19.355Z,3.30
2023-05-12T04:20:22.437Z,3.35
2023-05-12T04:23:24.704Z,3.50
2023-05-12T04:26:27.060Z,4.20
2023-05-12T04:29:39.523Z,3.90
2023-05-12T04:32:41.689Z,3.45
2023-05-12T04:35:44.020Z,4.20
2023-05-12T04:38:48.215Z,3.23
2023-05-12T04:41:50.840Z,3.95
2023-05-12T04:44:53.929Z,3.85
2023-05-12T04:47:56.315Z,3.75
2023-05-12T04:50:59.604Z,3.90
2023-05-12T04:54:05.074Z,3.80
2023-05-12T04:57:12.487Z,4.28
2023-05-12T05:00:16.699Z,4.00
2023-05-12T05:03:22.660Z,3.87
2023-05-12T05:06:28.482Z,3.47
2023-05-12T05:09:30.898Z,3.92
2023-05-12T05:12:36.028Z,4.15
2023-05-12T05:15:39.742Z,4.10
2023-05-12T05:18:46.484Z,3.90
2023-05-12T05:21:49.570Z,3.65
2023-05-12T05:24:52.220Z,3.97
2023-05-12T05:27:55.707Z,3.50
2023-05-12T05:30:58.508Z,3.65
2023-05-12T05:34:01.181Z,3.72
2023-05-12T05:37:03.733Z,3.40
2023-05-12T05:40:06.355Z,3.92
2023-05-12T05:43:08.374Z,3.50
2023-05-12T05:46:10.730Z,4.45
2023-05-12T05:49:14.202Z,3.80
2023-05-12T05:52:16.604Z,4.10
2023-05-12T05:55:19.112Z,4.43
2023-05-12T05:58:21.625Z,4.30
2023-05-12T06:01:24.474Z,9.50
2023-05-12T06:04:26.772Z,14.60
2023-05-12T06:07:28.948Z,7.90
2023-05-12T06:10:38.273Z,5.78
2023-05-12T06:13:44.380Z,4.22
2023-05-12T06:16:46.609Z,3.77
2023-05-12T06:19:50.062Z,4.13
2023-05-12T06:22:52.263Z,4.38
2023-05-12T06:25:54.414Z,4.55
2023-05-12T06:28:56.851Z,4.63
2023-05-12T06:32:25.913Z,4.27
2023-05-12T06:35:41.896Z,4.40
2023-05-12T06:38:45.777Z,4.60
2023-05-12T06:41:49.554Z,3.80
2023-05-12T06:45:12.284Z,4.23
2023-05-12T06:48:15.168Z,4.53
2023-05-12T06:51:17.268Z,3.95
2023-05-12T06:54:19.485Z,4.90
2023-05-12T06:57:21.438Z,4.60
2023-05-12T07:00:23.887Z,4.32
2023-05-12T07:03:26.386Z,4.22
2023-05-12T07:06:28.774Z,3.92
2023-05-12T07:09:30.969Z,4.50
2023-05-12T07:13:05.048Z,4.00
2023-05-12T07:16:07.640Z,4.50
2023-05-12T07:19:09.790Z,4.55
2023-05-12T07:22:12.029Z,4.07
2023-05-12T07:25:14.225Z,3.97
2023-05-12T07:28:16.685Z,4.22
2023-05-12T07:31:18.785Z,4.05
2023-05-12T07:34:21.376Z,3.47
2023-05-12T07:37:23.874Z,3.42
2023-05-12T07:40:26.193Z,4.03
2023-05-12T07:43:28.333Z,5.20
2023-05-12T07:46:30.697Z,4.53
2023-05-12T07:49:32.911Z,3.72
2023-05-12T07:52:34.976Z,3.60
2023-05-12T07:55:37.353Z,4.00
2023-05-12T07:58:39.897Z,3.90
2023-05-12T08:01:42.864Z,4.60
2023-05-12T08:04:44.957Z,4.35
2023-05-12T08:07:47.347Z,4.23
2023-05-12T08:10:49.371Z,4.03
2023-05-12T08:13:51.510Z,4.53
2023-05-12T08:16:53.710Z,5.43
2023-05-12T08:19:56.539Z,6.57
2023-05-12T08:22:58.979Z,4.50
2023-05-12T08:26:01.007Z,4.30
2023-05-12T08:29:04.923Z,4.45
2023-05-12T08:32:07.287Z,4.60
2023-05-12T08:35:09.654Z,5.03
2023-05-12T08:38:11.731Z,5.33
2023-05-12T08:41:19.999Z,5.30
2023-05-12T08:47:54.881Z,4.43
2023-05-12T08:51:00.647Z,4.35
2023-05-12T08:54:05.092Z,5.63
2023-05-12T08:57:12.721Z,5.00
2023-05-12T09:00:16.401Z,5.50
2023-05-12T09:03:41.762Z,4.95
2023-05-12T09:06:44.153Z,5.43
2023-05-12T09:09:47.270Z,6.20
2023-05-12T09:12:50.401Z,5.13
2023-05-12T09:15:56.572Z,6.88
2023-05-12T09:19:06.894Z,5.90
2023-05-12T09:22:35.947Z,6.40
2023-05-12T09:25:39.785Z,6.03
2023-05-12T09:28:41.936Z,5.72
2023-05-12T09:31:53.451Z,6.32
2023-05-12T09:34:56.152Z,7.82
2023-05-12T09:38:05.308Z,7.53
2023-05-12T09:41:08.244Z,8.55
2023-05-12T09:44:11.288Z,7.18
2023-05-12T09:47:15.519Z,6.97
2023-05-12T09:50:19.217Z,7.88
2023-05-12T09:53:23.044Z,9.32
2023-05-12T09:56:26.973Z,7.78
2023-05-12T09:59:30.863Z,7.70
2023-05-12T10:02:33.297Z,7.53
2023-05-12T10:05:35.551Z,7.78
2023-05-12T10:08:38.019Z,8.32
2023-05-12T10:11:40.350Z,7.37
2023-05-12T10:14:42.848Z,8.50
2023-05-12T10:17:45.773Z,7.93
2023-05-12T10:20:48.456Z,8.70
2023-05-12T10:23:50.516Z,8.70
2023-05-12T10:26:53.713Z,8.23
2023-05-12T10:29:55.759Z,9.25
2023-05-12T10:32:58.187Z,10.15
2023-05-12T10:36:00.383Z,9.80
2023-05-12T10:39:06.434Z,9.15
2023-05-12T10:42:08.811Z,8.85
2023-05-12T10:45:17.972Z,7.95
2023-05-12T10:48:20.216Z,9.20
2023-05-12T10:51:26.635Z,9.77
2023-05-12T10:54:28.646Z,8.45
2023-05-12T10:57:32.026Z,8.98
2023-05-12T11:00:44.396Z,9.27
2023-05-12T11:03:47.804Z,8.90
2023-05-12T11:06:59.280Z,8.60
2023-05-12T11:10:07.964Z,9.57
2023-05-12T11:13:11.036Z,10.13
2023-05-12T11:16:13.736Z,8.60
2023-05-12T11:19:18.267Z,7.82
2023-05-12T11:22:21.697Z,8.43
2023-05-12T11:25:25.886Z,7.70
2023-05-12T11:28:27.981Z,7.53
2023-05-12T11:31:30.009Z,6.97
2023-05-12T11:34:32.102Z,7.75
2023-05-12T11:37:36.984Z,7.68
2023-05-12T11:40:40.076Z,7.25
2023-05-12T11:43:43.245Z,7.75
2023-05-12T11:47:01.706Z,7.82
2023-05-12T11:50:03.964Z,7.57
2023-05-12T11:53:09.356Z,7.30
2023-05-12T11:56:17.708Z,7.00
2023-05-12T11:59:29.872Z,7.50
2023-05-12T12:02:32.778Z,6.93
2023-05-12T12:05:34.880Z,6.43
2023-05-12T12:08:40.619Z,6.47
2023-05-12T12:11:42.814Z,5.70
2023-05-12T12:14:45.352Z,6.68
2023-05-12T12:17:47.877Z,6.50
2023-05-12T12:20:50.043Z,5.95
2023-05-12T12:23:52.368Z,6.45
2023-05-12T12:27:00.296Z,6.40
2023-05-12T12:30:04.116Z,5.83
2023-05-12T12:33:06.304Z,5.90
2023-05-12T12:36:08.929Z,5.65
2023-05-12T12:39:11.606Z,5.90
2023-05-12T12:42:14.156Z,5.20
2023-05-12T12:45:18.525Z,5.63
2023-05-12T12:48:22.292Z,5.78
2023-05-12T12:51:26.854Z,5.53
2023-05-12T12:54:35.613Z,5.17
2023-05-12T12:57:37.789Z,5.65
2023-05-12T13:00:39.867Z,5.72
2023-05-12T13:03:41.926Z,5.78
2023-05-12T13:06:44.445Z,5.32
2023-05-12T13:09:46.806Z,5.45
2023-05-12T13:12:49.412Z,5.82
2023-05-12T13:15:53.164Z,5.80
2023-05-12T13:18:55.298Z,5.90
2023-05-12T13:21:57.439Z,6.20
2023-05-12T13:25:00.069Z,5.82
2023-05-12T13:28:02.903Z,6.22
2023-05-12T13:31:06.227Z,6.60
2023-05-12T13:34:08.714Z,6.40
2023-05-12T13:37:11.336Z,7.28
2023-05-12T13:40:14.307Z,5.57
2023-05-12T13:43:16.459Z,6.40
2023-05-12T13:46:18.432Z,6.13
2023-05-12T13:49:20.528Z,5.82
2023-05-12T13:52:23.033Z,6.57
2023-05-12T13:55:25.846Z,6.90
2023-05-12T13:58:27.984Z,6.53
2023-05-12T14:01:30.863Z,6.80
2023-05-12T14:04:33.284Z,7.23
2023-05-12T14:07:35.649Z,7.40
2023-05-12T14:10:37.912Z,6.40
2023-05-12T14:13:40.634Z,5.85
2023-05-12T14:16:42.763Z,7.57
2023-05-12T14:19:45.363Z,6.87
2023-05-12T14:22:48.104Z,7.20
2023-05-12T14:25:50.534Z,9.50
2023-05-12T14:28:53.173Z,5.70
2023-05-12T14:31:55.821Z,6.13
2023-05-12T14:34:57.988Z,6.00
2023-05-12T14:38:00.322Z,5.72
2023-05-12T14:41:02.351Z,5.50
2023-05-12T14:44:05.185Z,5.30
2023-05-12T14:47:09.354Z,5.22
2023-05-12T14:50:12.388Z,6.50
2023-05-12T14:53:15.457Z,5.47
2023-05-12T14:56:17.933Z,4.80
2023-05-12T14:59:20.402Z,5.50
2023-05-12T15:02:22.636Z,5.65
2023-05-12T15:05:32.637Z,5.30
2023-05-12T15:08:46.975Z,6.00
2023-05-12T15:11:49.982Z,6.85
2023-05-12T15:14:54.440Z,6.32
2023-05-12T15:17:57.176Z,5.80
2023-05-12T15:20:59.488Z,6.10
2023-05-12T15:24:01.858Z,7.00
2023-05-12T15:27:04.928Z,6.18
2023-05-12T15:30:07.794Z,6.80
2023-05-12T15:33:10.477Z,6.60
2023-05-12T15:36:13.991Z,7.18
2023-05-12T15:39:21.753Z,7.05
2023-05-12T15:42:29.998Z,7.57
2023-05-12T15:45:37.997Z,6.20
2023-05-12T15:48:40.065Z,6.00
2023-05-12T15:51:42.540Z,6.60
2023-05-12T15:54:45.641Z,6.30
2023-05-12T15:57:47.663Z,6.37
2023-05-12T16:00:49.668Z,6.85
2023-05-12T16:03:52.905Z,5.72
2023-05-12T16:06:55.982Z,6.93
2023-05-12T16:09:59.023Z,5.47
2023-05-12T16:13:04.738Z,5.23
2023-05-12T16:16:08.727Z,6.00
2023-05-12T16:19:21.595Z,5.95
2023-05-12T16:22:24.440Z,5.90
2023-05-12T16:25:27.325Z,7.97
2023-05-12T16:28:29.997Z,6.25
2023-05-12T16:31:32.072Z,6.38
2023-05-12T16:34:34.272Z,7.87
2023-05-12T16:37:36.264Z,6.73
2023-05-12T16:40:38.354Z,7.03
2023-05-12T16:43:40.469Z,7.93
2023-05-12T16:46:43.235Z,40.03
2023-05-12T16:49:45.845Z,24.77
2023-05-12T16:52:48.230Z,27.60
2023-05-12T16:55:50.585Z,27.52
2023-05-12T16:58:52.618Z,18.02
2023-05-12T17:01:55.069Z,11.70
2023-05-12T17:04:57.541Z,8.63
2023-05-12T17:07:59.629Z,7.05
2023-05-12T17:11:02.008Z,7.78
2023-05-12T17:14:04.925Z,7.00
2023-05-12T17:17:07.592Z,6.65
2023-05-12T17:20:10.265Z,6.32
2023-05-12T17:23:12.879Z,6.30
2023-05-12T17:26:15.748Z,6.47
2023-05-12T17:29:18.414Z,7.20
2023-05-12T17:32:20.574Z,6.85
2023-05-12T17:35:23.208Z,8.73
2023-05-12T17:38:25.507Z,6.80
2023-05-12T17:41:29.188Z,7.50
2023-05-12T17:44:32.381Z,6.28
2023-05-12T17:47:34.524Z,6.83
2023-05-12T17:50:36.671Z,6.38
2023-05-12T17:53:39.111Z,6.93
2023-05-12T17:56:41.830Z,6.82
2023-05-12T17:59:44.564Z,7.97
2023-05-12T18:02:46.675Z,7.55
2023-05-12T18:05:51.866Z,6.93
2023-05-12T18:08:54.098Z,6.88
2023-05-12T18:11:56.740Z,7.20
2023-05-12T18:14:58.919Z,8.23
2023-05-12T18:18:05.098Z,9.45
2023-05-12T18:21:07.536Z,7.32
2023-05-12T18:24:09.615Z,8.87
2023-05-12T18:27:11.789Z,7.50
2023-05-12T18:30:14.494Z,7.63
2023-05-12T18:33:16.635Z,7.13
2023-05-12T18:36:19.427Z,6.78
2023-05-12T18:39:21.448Z,6.88
2023-05-12T18:42:23.606Z,7.55
2023-05-12T18:45:25.966Z,7.93
2023-05-12T18:48:28.148Z,7.20
2023-05-12T18:51:30.271Z,7.22
2023-05-12T18:54:32.765Z,6.85
2023-05-12T18:57:35.482Z,7.50
2023-05-12T19:00:37.583Z,10.63
2023-05-12T19:03:40.364Z,13.45
2023-05-12T19:06:42.833Z,10.05
2023-05-12T19:09:50.937Z,13.55
2023-05-12T19:12:53.308Z,12.00
2023-05-12T19:15:55.682Z,8.63
2023-05-12T19:18:58.463Z,7.95
2023-05-12T19:22:01.088Z,7.40
2023-05-12T19:25:04.240Z,6.60
2023-05-12T19:28:06.344Z,7.32
2023-05-12T19:31:08.392Z,6.57
2023-05-12T19:34:10.400Z,7.13
2023-05-12T19:37:12.389Z,8.00
2023-05-12T19:40:14.414Z,8.00
2023-05-12T19:43:16.439Z,8.07
2023-05-12T19:46:18.512Z,8.52
2023-05-12T19:49:22.176Z,8.20
2023-05-12T19:52:24.804Z,8.65
2023-05-12T19:55:27.196Z,8.25
2023-05-12T19:58:29.224Z,9.10
2023-05-12T20:01:31.259Z,8.48
2023-05-12T20:04:33.285Z,8.75
2023-05-12T20:07:35.738Z,9.18
2023-05-12T20:10:37.724Z,7.73
2023-05-12T20:13:39.678Z,8.75
2023-05-12T20:16:41.704Z,8.68
2023-05-12T20:19:43.845Z,8.27
2023-05-12T20:22:45.857Z,8.70
2023-05-12T20:25:47.813Z,8.88
2023-05-12T20:28:51.432Z,9.98
2023-05-12T20:31:54.512Z,9.55
2023-05-12T20:34:56.728Z,9.70
2023-05-12T20:37:58.786Z,9.07
2023-05-12T20:41:06.779Z,9.23
2023-05-12T20:44:08.995Z,8.38
2023-05-12T20:47:11.168Z,8.40
2023-05-12T20:50:13.844Z,8.13
2023-05-12T20:53:16.518Z,8.65
2023-05-12T20:56:19.136Z,8.60
2023-05-12T20:59:21.512Z,7.87
2023-05-12T21:02:27.096Z,8.18
2023-05-12T21:05:29.184Z,8.65
2023-05-12T21:08:31.225Z,9.00
2023-05-12T21:11:33.226Z,7.77
2023-05-12T21:14:42.265Z,7.88
2023-05-12T21:17:44.781Z,7.95
2023-05-12T21:20:46.906Z,8.50
2023-05-12T21:23:49.326Z,8.63
2023-05-12T21:26:51.684Z,8.55
2023-05-12T21:29:54.065Z,9.18
2023-05-12T21:32:56.175Z,9.73
2023-05-12T21:35:58.599Z,8.63
2023-05-12T21:39:00.981Z,9.35
2023-05-12T21:42:03.812Z,8.95
2023-05-12T21:45:06.305Z,8.90
2023-05-12T21:48:08.889Z,9.30
2023-05-12T21:51:10.920Z,9.63
2023-05-12T21:54:13.307Z,8.63
2023-05-12T21:57:15.224Z,8.83
2023-05-12T22:00:20.300Z,7.78
2023-05-12T22:03:24.979Z,8.05
2023-05-12T22:06:27.532Z,7.28
2023-05-12T22:09:31.218Z,8.13
2023-05-12T22:12:33.698Z,8.18
2023-05-12T22:15:35.777Z,7.40
2023-05-12T22:18:38.311Z,7.93
2023-05-12T22:21:40.321Z,8.43
2023-05-12T22:24:43.845Z,7.72
2023-05-12T22:27:45.914Z,7.15
2023-05-12T22:30:47.931Z,6.88
2023-05-12T22:33:50.535Z,7.97
2023-05-12T22:36:52.591Z,7.55
2023-05-12T22:39:54.897Z,7.80
2023-05-12T22:42:57.308Z,8.20
2023-05-12T22:45:59.422Z,7.90
2023-05-12T22:49:01.573Z,8.00
2023-05-12T22:52:03.607Z,7.53
2023-05-12T22:55:06.421Z,7.47
2023-05-12T22:58:10.311Z,7.70
2023-05-12T23:01:12.362Z,7.40
2023-05-12T23:04:14.357Z,7.57
2023-05-12T23:07:16.524Z,7.72
2023-05-12T23:10:19.056Z,8.10
2023-05-12T23:13:21.362Z,7.72
2023-05-12T23:16:26.760Z,7.95
2023-05-12T23:19:28.827Z,8.63
2023-05-12T23:22:31.463Z,8.30
2023-05-12T23:25:35.192Z,7.82
2023-05-12T23:28:37.266Z,8.10
2023-05-12T23:31:39.259Z,8.13
2023-05-12T23:34:41.372Z,8.17
2023-05-12T23:37:43.781Z,7.57
2023-05-12T23:40:45.849Z,7.93
2023-05-12T23:43:47.925Z,7.65
2023-05-12T23:46:50.063Z,7.93
2023-05-12T23:49:52.503Z,6.97
2023-05-12T23:52:54.738Z,7.30
2023-05-12T23:55:57.067Z,7.55
2023-05-12T23:58:59.502Z,7.20
